Weather at Milos Airport

Public forecast

Using degrees Celsius for public forecast. Weather courtesy of forecast.io.

Closest aviation weather report (METAR) to Milos Airport

Closest report is Paros National Airport, 36.2 nm (67.1 km) ENE. Retrieved 2021/04/17 13:20 UTC (36 minutes ago):

LGPA 171320Z 06006KT CAVOK 21/13 Q1008

Closest aviation forecast (TAF) to Milos Airport

Closest forecast is Santorini Airport, 51.5 nm (95.5 km) ESE. Retrieved 2021/04/17 12:12 UTC (2 hours ago):

TAF LGSR 171100Z 1712/1812 17025G35KT 9999 FEW020 SCT030 BECMG 1810/1812 VRB05KT